createdAt,value
2018-09-09T07:18:50.654Z,14.10
2018-09-09T07:21:18.938Z,14.10
2018-09-09T07:23:47.185Z,14.30
2018-09-09T07:26:15.446Z,14.40
2018-09-09T07:28:43.674Z,14.70
2018-09-09T07:31:11.974Z,14.80
2018-09-09T07:33:40.194Z,15.00
2018-09-09T07:36:08.569Z,15.10
2018-09-09T07:38:36.861Z,15.20
2018-09-09T07:41:05.109Z,15.30
2018-09-09T07:43:33.414Z,15.40
2018-09-09T07:46:01.673Z,15.50
2018-09-09T07:48:29.954Z,15.60
2018-09-09T07:50:58.214Z,15.70
2018-09-09T07:53:26.453Z,15.70
2018-09-09T07:55:54.709Z,15.90
2018-09-09T07:58:22.955Z,16.00
2018-09-09T08:00:51.381Z,16.10
2018-09-09T08:03:19.610Z,16.30
2018-09-09T08:05:47.865Z,16.40
2018-09-09T08:08:16.102Z,16.50
2018-09-09T08:10:44.378Z,16.50
2018-09-09T08:13:12.646Z,16.70
2018-09-09T08:15:40.905Z,16.80
2018-09-09T08:18:09.144Z,16.90
2018-09-09T08:20:37.416Z,17.10
2018-09-09T08:23:05.690Z,17.20
2018-09-09T08:25:33.954Z,17.20
2018-09-09T08:28:02.238Z,17.20
2018-09-09T08:30:30.501Z,17.20
2018-09-09T08:32:58.750Z,17.30
2018-09-09T08:35:27.003Z,17.30
2018-09-09T08:37:55.347Z,17.50
2018-09-09T08:40:23.601Z,17.70
2018-09-09T08:42:51.822Z,17.90
2018-09-09T08:45:20.099Z,18.30
2018-09-09T08:47:48.341Z,18.30
2018-09-09T08:50:16.607Z,18.60
2018-09-09T08:52:44.849Z,18.70
2018-09-09T08:55:13.114Z,18.80
2018-09-09T08:57:41.410Z,18.90
2018-09-09T09:00:09.653Z,19.00
2018-09-09T09:02:37.950Z,19.20
2018-09-09T09:05:06.186Z,19.40
2018-09-09T09:07:34.491Z,19.80
2018-09-09T09:10:02.705Z,20.00
2018-09-09T09:12:30.970Z,20.20
2018-09-09T09:14:59.210Z,20.40
2018-09-09T09:17:27.485Z,20.50
2018-09-09T09:19:55.728Z,20.60
2018-09-09T09:22:23.997Z,20.70
2018-09-09T09:24:52.226Z,20.80
2018-09-09T09:27:20.491Z,21.00
2018-09-09T09:29:54.122Z,21.20
2018-09-09T09:32:23.750Z,21.20
2018-09-09T09:34:52.659Z,21.10
2018-09-09T09:37:21.836Z,21.30
2018-09-09T09:39:50.098Z,21.20
2018-09-09T09:42:18.365Z,21.20
2018-09-09T09:44:46.624Z,21.20
2018-09-09T09:47:14.894Z,21.20
2018-09-09T09:49:43.129Z,21.00
2018-09-09T09:52:11.595Z,20.90
2018-09-09T09:54:40.260Z,21.10
2018-09-09T09:57:08.966Z,21.20
2018-09-09T09:59:37.218Z,21.40
2018-09-09T10:02:05.478Z,21.60
2018-09-09T10:04:33.729Z,21.90
2018-09-09T10:07:02.000Z,22.10
2018-09-09T10:09:30.244Z,22.20
2018-09-09T10:11:58.511Z,22.30
2018-09-09T10:14:26.755Z,22.40
2018-09-09T10:16:55.021Z,22.50
2018-09-09T10:19:23.269Z,22.50
2018-09-09T10:21:51.706Z,22.60
2018-09-09T10:24:19.958Z,22.80
2018-09-09T10:26:48.221Z,22.90
2018-09-09T10:29:16.474Z,23.00
2018-09-09T10:31:44.737Z,22.90
2018-09-09T10:34:12.994Z,22.90
2018-09-09T10:36:41.241Z,22.80
2018-09-09T10:39:11.596Z,22.90
2018-09-09T10:41:40.047Z,23.10
2018-09-09T10:44:08.758Z,23.30
2018-09-09T10:46:37.059Z,23.30
2018-09-09T10:49:05.383Z,23.30
2018-09-09T10:51:33.627Z,23.30
2018-09-09T10:54:02.017Z,23.40
2018-09-09T10:56:30.266Z,23.70
2018-09-09T10:58:58.542Z,24.00
2018-09-09T11:01:26.789Z,24.20
2018-09-09T11:03:55.053Z,24.40
2018-09-09T11:06:23.297Z,24.30
2018-09-09T11:08:51.558Z,24.20
2018-09-09T11:11:19.798Z,24.20
2018-09-09T11:13:48.066Z,24.20
2018-09-09T11:16:16.309Z,24.40
2018-09-09T11:18:44.566Z,24.40
2018-09-09T11:21:12.825Z,24.50
2018-09-09T11:23:41.098Z,24.40
2018-09-09T11:26:09.343Z,24.30
2018-09-09T11:28:37.602Z,24.40
2018-09-09T11:31:05.952Z,24.40
2018-09-09T11:33:34.203Z,24.30
2018-09-09T11:36:02.446Z,24.40
2018-09-09T11:38:30.712Z,24.60
2018-09-09T11:40:58.949Z,24.70
2018-09-09T11:43:27.221Z,24.80
2018-09-09T11:45:55.457Z,24.80
2018-09-09T11:48:23.721Z,24.80
2018-09-09T11:50:51.963Z,24.90
2018-09-09T11:53:20.221Z,24.80
2018-09-09T11:55:48.483Z,25.00
2018-09-09T11:58:16.748Z,25.20
2018-09-09T12:00:45.006Z,25.10
2018-09-09T12:03:13.260Z,25.30
2018-09-09T12:05:41.498Z,25.50
2018-09-09T12:08:09.751Z,25.40
2018-09-09T12:10:38.001Z,25.40
2018-09-09T12:13:06.268Z,25.40
2018-09-09T12:15:34.516Z,25.50
2018-09-09T12:18:02.769Z,25.40
2018-09-09T12:20:31.019Z,25.50
2018-09-09T12:22:59.293Z,25.70
2018-09-09T12:25:27.542Z,25.90
2018-09-09T12:27:55.815Z,25.80
2018-09-09T12:30:24.072Z,25.80
2018-09-09T12:32:52.335Z,25.70
2018-09-09T12:35:20.665Z,25.70
2018-09-09T12:37:49.003Z,25.70
2018-09-09T12:40:17.220Z,25.70
2018-09-09T12:42:48.146Z,25.60
2018-09-09T12:45:21.898Z,25.60
2018-09-09T12:47:55.569Z,25.60
2018-09-09T12:50:23.827Z,25.70
2018-09-09T12:52:52.110Z,25.80
2018-09-09T12:55:20.359Z,26.00
2018-09-09T12:57:48.597Z,25.90
2018-09-09T13:00:16.916Z,26.00
2018-09-09T13:02:45.148Z,26.10
2018-09-09T13:05:13.417Z,26.10
2018-09-09T13:07:41.694Z,26.10
2018-09-09T13:10:09.984Z,25.80
2018-09-09T13:12:43.719Z,25.80
2018-09-09T13:15:11.974Z,25.80
2018-09-09T13:17:40.213Z,25.70
2018-09-09T13:20:08.481Z,25.60
2018-09-09T13:22:36.754Z,25.50
2018-09-09T13:25:05.023Z,25.50
2018-09-09T13:27:33.274Z,25.50
2018-09-09T13:30:01.546Z,25.50
2018-09-09T13:32:29.790Z,25.30
2018-09-09T13:34:58.062Z,25.30
2018-09-09T13:37:26.305Z,25.50
2018-09-09T13:39:54.578Z,25.30
2018-09-09T13:42:22.830Z,25.20
2018-09-09T13:44:51.096Z,25.00
2018-09-09T13:47:19.745Z,25.00
2018-09-09T13:49:48.032Z,24.80
2018-09-09T13:52:16.304Z,24.80
2018-09-09T13:54:44.578Z,24.70
2018-09-09T13:57:12.822Z,24.60
2018-09-09T13:59:41.087Z,24.60
2018-09-09T14:02:09.318Z,24.60
2018-09-09T14:04:37.578Z,24.60
2018-09-09T14:07:05.834Z,24.50
2018-09-09T14:09:34.145Z,24.50
2018-09-09T14:12:02.365Z,24.50
2018-09-09T14:14:30.626Z,24.40
2018-09-09T14:16:58.858Z,24.40
2018-09-09T14:19:27.119Z,24.40
2018-09-09T14:21:55.375Z,24.50
2018-09-09T14:24:23.646Z,24.60
2018-09-09T14:26:51.905Z,24.60
2018-09-09T14:29:20.208Z,24.60
2018-09-09T14:31:48.453Z,24.50
2018-09-09T14:34:16.776Z,24.50
2018-09-09T14:36:44.985Z,24.50
2018-09-09T14:39:13.241Z,24.50
2018-09-09T14:41:41.486Z,24.50
2018-09-09T14:44:09.801Z,24.40
2018-09-09T14:46:38.026Z,24.40
2018-09-09T14:49:06.263Z,24.40
2018-09-09T14:51:34.522Z,24.40
2018-09-09T14:54:02.770Z,24.30
2018-09-09T14:56:31.040Z,24.30
2018-09-09T14:58:59.280Z,24.20
2018-09-09T15:01:27.539Z,24.20
2018-09-09T15:03:55.789Z,24.10
2018-09-09T15:06:24.047Z,24.10
2018-09-09T15:08:52.297Z,24.00
2018-09-09T15:11:20.561Z,24.00
2018-09-09T15:13:48.816Z,23.90
2018-09-09T15:16:17.082Z,23.80
2018-09-09T15:18:45.326Z,23.80
2018-09-09T15:21:13.614Z,23.70
